Terminal Aerodrome Forecast
Issued by NWS Charleston, WV

Current Version | Previous Version | Text Only | Print | Product List | Glossary Off
Versions: 1 2 3 4 5 6 7 8 9 10 11 12 13 14 15 16 17 18 19 20 21 22 23 24 25

000
FTUS41 KRLX 251028 AAB
TAFEKN
TAF AMD
KEKN 251028Z 2510/2606 00000KT 6SM SHRA BKN004 OVC090
     FM251300 23004KT P6SM SHRA BKN011
     FM251600 24006KT P6SM SHRA BKN045=

USA.gov is the U.S. government's official web portal to all federal, state and local government web resources and services.